sensor_id;sensor_type;location;lat;lon;timestamp;pressure;altitude;pressure_sealevel;temperature;humidity
9721;BME280;4899;42.644;23.366;2023-02-01T00:01:32;94298.69;;;1.04;100.00
9721;BME280;4899;42.644;23.366;2023-02-01T00:03:58;94299.22;;;1.11;100.00
9721;BME280;4899;42.644;23.366;2023-02-01T00:06:23;94303.28;;;1.12;100.00
9721;BME280;4899;42.644;23.366;2023-02-01T00:08:52;94271.75;;;0.87;100.00
9721;BME280;4899;42.644;23.366;2023-02-01T00:11:18;94292.53;;;0.95;100.00
9721;BME280;4899;42.644;23.366;2023-02-01T00:13:43;94314.69;;;1.09;100.00
9721;BME280;4899;42.644;23.366;2023-02-01T00:16:12;94298.19;;;1.02;100.00
9721;BME280;4899;42.644;23.366;2023-02-01T00:18:39;94295.59;;;0.97;100.00
9721;BME280;4899;42.644;23.366;2023-02-01T00:21:05;94302.75;;;1.05;100.00
9721;BME280;4899;42.644;23.366;2023-02-01T00:23:35;94305.25;;;1.00;100.00
9721;BME280;4899;42.644;23.366;2023-02-01T00:26:02;94293.13;;;1.02;100.00
9721;BME280;4899;42.644;23.366;2023-02-01T00:28:28;94302.75;;;1.05;100.00
9721;BME280;4899;42.644;23.366;2023-02-01T00:31:01;94301.22;;;1.04;100.00
9721;BME280;4899;42.644;23.366;2023-02-01T00:33:28;94294.13;;;1.01;100.00
9721;BME280;4899;42.644;23.366;2023-02-01T00:36:06;94293.81;;;0.97;100.00
9721;BME280;4899;42.644;23.366;2023-02-01T00:38:33;94301.41;;;0.97;100.00
9721;BME280;4899;42.644;23.366;2023-02-01T00:41:09;94291.75;;;0.84;100.00
9721;BME280;4899;42.644;23.366;2023-02-01T00:43:35;94284.88;;;0.79;100.00
9721;BME280;4899;42.644;23.366;2023-02-01T00:46:01;94290.72;;;0.85;100.00
9721;BME280;4899;42.644;23.366;2023-02-01T00:48:27;94299.09;;;0.85;100.00
9721;BME280;4899;42.644;23.366;2023-02-01T00:50:52;94286.13;;;0.77;100.00
9721;BME280;4899;42.644;23.366;2023-02-01T00:53:18;94287.06;;;0.66;100.00
9721;BME280;4899;42.644;23.366;2023-02-01T00:55:48;94283.25;;;0.63;100.00
9721;BME280;4899;42.644;23.366;2023-02-01T00:58:14;94281.75;;;0.67;100.00
9721;BME280;4899;42.644;23.366;2023-02-01T01:00:39;94276.38;;;0.58;100.00
9721;BME280;4899;42.644;23.366;2023-02-01T01:03:05;94290.88;;;0.68;100.00
9721;BME280;4899;42.644;23.366;2023-02-01T01:05:56;94288.56;;;0.67;100.00
9721;BME280;4899;42.644;23.366;2023-02-01T01:08:22;94278.19;;;0.63;100.00
9721;BME280;4899;42.644;23.366;2023-02-01T01:10:48;94277.59;;;0.51;100.00
9721;BME280;4899;42.644;23.366;2023-02-01T01:13:15;94279.94;;;0.63;100.00
9721;BME280;4899;42.644;23.366;2023-02-01T01:15:41;94284.00;;;0.64;100.00
9721;BME280;4899;42.644;23.366;2023-02-01T01:18:07;94269.81;;;0.63;100.00
9721;BME280;4899;42.644;23.366;2023-02-01T01:20:37;94282.78;;;0.71;100.00
9721;BME280;4899;42.644;23.366;2023-02-01T01:23:06;94281.09;;;0.82;100.00
9721;BME280;4899;42.644;23.366;2023-02-01T01:25:32;94296.50;;;0.75;100.00
9721;BME280;4899;42.644;23.366;2023-02-01T01:28:01;94289.19;;;0.79;100.00
9721;BME280;4899;42.644;23.366;2023-02-01T01:30:27;94270.66;;;0.73;100.00
9721;BME280;4899;42.644;23.366;2023-02-01T01:32:52;94287.44;;;0.84;100.00
9721;BME280;4899;42.644;23.366;2023-02-01T01:35:18;94270.47;;;0.85;100.00
9721;BME280;4899;42.644;23.366;2023-02-01T01:37:43;94288.97;;;0.85;100.00
9721;BME280;4899;42.644;23.366;2023-02-01T01:40:10;94294.25;;;0.79;100.00
9721;BME280;4899;42.644;23.366;2023-02-01T01:42:40;94307.31;;;0.71;100.00
9721;BME280;4899;42.644;23.366;2023-02-01T01:45:25;94299.50;;;0.72;100.00
9721;BME280;4899;42.644;23.366;2023-02-01T01:47:56;94322.13;;;0.84;100.00
9721;BME280;4899;42.644;23.366;2023-02-01T01:53:16;94283.63;;;0.82;100.00
9721;BME280;4899;42.644;23.366;2023-02-01T01:55:44;94310.69;;;0.76;100.00
9721;BME280;4899;42.644;23.366;2023-02-01T01:58:16;94312.13;;;0.67;100.00
9721;BME280;4899;42.644;23.366;2023-02-01T02:00:44;94301.94;;;0.57;100.00
9721;BME280;4899;42.644;23.366;2023-02-01T02:03:20;94299.13;;;0.53;100.00
9721;BME280;4899;42.644;23.366;2023-02-01T02:05:49;94293.47;;;0.46;100.00
9721;BME280;4899;42.644;23.366;2023-02-01T02:08:16;94298.50;;;0.41;100.00
9721;BME280;4899;42.644;23.366;2023-02-01T02:10:42;94289.06;;;0.26;100.00
9721;BME280;4899;42.644;23.366;2023-02-01T02:13:31;94289.50;;;0.23;100.00
9721;BME280;4899;42.644;23.366;2023-02-01T02:24:09;94272.28;;;0.20;100.00
9721;BME280;4899;42.644;23.366;2023-02-01T02:27:02;94255.00;;;0.07;100.00
9721;BME280;4899;42.644;23.366;2023-02-01T02:35:30;94277.75;;;0.07;100.00
9721;BME280;4899;42.644;23.366;2023-02-01T02:43:16;94267.59;;;0.02;100.00
9721;BME280;4899;42.644;23.366;2023-02-01T02:49:19;94282.81;;;0.07;100.00
9721;BME280;4899;42.644;23.366;2023-02-01T02:51:52;94285.44;;;0.22;100.00
9721;BME280;4899;42.644;23.366;2023-02-01T02:54:43;94269.97;;;0.14;100.00
9721;BME280;4899;42.644;23.366;2023-02-01T02:57:19;94267.22;;;0.20;100.00
9721;BME280;4899;42.644;23.366;2023-02-01T03:00:09;94266.56;;;0.30;100.00
9721;BME280;4899;42.644;23.366;2023-02-01T03:02:54;94271.38;;;0.32;100.00
9721;BME280;4899;42.644;23.366;2023-02-01T03:05:44;94279.47;;;0.34;100.00
9721;BME280;4899;42.644;23.366;2023-02-01T03:08:14;94270.44;;;0.43;100.00
9721;BME280;4899;42.644;23.366;2023-02-01T03:10:51;94283.13;;;0.48;100.00
9721;BME280;4899;42.644;23.366;2023-02-01T03:21:06;94330.84;;;0.66;100.00
9721;BME280;4899;42.644;23.366;2023-02-01T03:23:35;94305.97;;;0.58;100.00
9721;BME280;4899;42.644;23.366;2023-02-01T03:26:04;94310.59;;;0.66;100.00
9721;BME280;4899;42.644;23.366;2023-02-01T03:28:33;94300.94;;;0.63;100.00
9721;BME280;4899;42.644;23.366;2023-02-01T03:31:00;94310.03;;;0.59;100.00
9721;BME280;4899;42.644;23.366;2023-02-01T03:33:27;94306.22;;;0.56;100.00
9721;BME280;4899;42.644;23.366;2023-02-01T03:39:56;94330.44;;;0.47;100.00
9721;BME280;4899;42.644;23.366;2023-02-01T03:41:54;94309.44;;;0.47;100.00
9721;BME280;4899;42.644;23.366;2023-02-01T03:44:31;94304.97;;;0.59;100.00
9721;BME280;4899;42.644;23.366;2023-02-01T03:47:10;94307.50;;;0.59;100.00
9721;BME280;4899;42.644;23.366;2023-02-01T03:49:40;94307.28;;;0.60;100.00
9721;BME280;4899;42.644;23.366;2023-02-01T03:52:11;94308.31;;;0.65;100.00
9721;BME280;4899;42.644;23.366;2023-02-01T03:54:39;94293.41;;;0.68;100.00
9721;BME280;4899;42.644;23.366;2023-02-01T03:57:09;94307.00;;;0.57;100.00
9721;BME280;4899;42.644;23.366;2023-02-01T03:59:41;94299.22;;;0.69;100.00
9721;BME280;4899;42.644;23.366;2023-02-01T04:02:07;94303.53;;;0.73;100.00
9721;BME280;4899;42.644;23.366;2023-02-01T04:04:34;94324.22;;;0.60;100.00
9721;BME280;4899;42.644;23.366;2023-02-01T04:07:00;94290.56;;;0.59;100.00
9721;BME280;4899;42.644;23.366;2023-02-01T04:09:25;94301.22;;;0.67;100.00
9721;BME280;4899;42.644;23.366;2023-02-01T04:11:51;94300.22;;;0.68;100.00
9721;BME280;4899;42.644;23.366;2023-02-01T04:14:17;94301.72;;;0.64;100.00
9721;BME280;4899;42.644;23.366;2023-02-01T04:16:42;94285.28;;;0.66;100.00
9721;BME280;4899;42.644;23.366;2023-02-01T04:19:08;94261.94;;;0.54;100.00
9721;BME280;4899;42.644;23.366;2023-02-01T04:21:33;94294.41;;;0.67;100.00
9721;BME280;4899;42.644;23.366;2023-02-01T04:23:59;94312.97;;;0.78;100.00
9721;BME280;4899;42.644;23.366;2023-02-01T04:26:24;94319.28;;;0.75;100.00
9721;BME280;4899;42.644;23.366;2023-02-01T04:28:50;94319.75;;;0.72;100.00
9721;BME280;4899;42.644;23.366;2023-02-01T04:31:17;94302.50;;;0.69;100.00
9721;BME280;4899;42.644;23.366;2023-02-01T04:33:43;94319.59;;;0.84;100.00
9721;BME280;4899;42.644;23.366;2023-02-01T04:36:09;94331.00;;;0.86;100.00
9721;BME280;4899;42.644;23.366;2023-02-01T04:38:35;94305.13;;;0.79;100.00
9721;BME280;4899;42.644;23.366;2023-02-01T04:41:00;94329.47;;;0.85;100.00
9721;BME280;4899;42.644;23.366;2023-02-01T04:43:26;94308.19;;;0.81;100.00
9721;BME280;4899;42.644;23.366;2023-02-01T04:45:52;94297.03;;;0.82;100.00
9721;BME280;4899;42.644;23.366;2023-02-01T04:48:19;94302.34;;;0.81;100.00
9721;BME280;4899;42.644;23.366;2023-02-01T04:50:46;94300.13;;;0.89;100.00
9721;BME280;4899;42.644;23.366;2023-02-01T04:53:16;94323.19;;;0.93;100.00
9721;BME280;4899;42.644;23.366;2023-02-01T04:55:43;94307.19;;;0.87;100.00
9721;BME280;4899;42.644;23.366;2023-02-01T04:58:09;94318.81;;;0.83;100.00
9721;BME280;4899;42.644;23.366;2023-02-01T05:00:35;94316.31;;;0.88;100.00
9721;BME280;4899;42.644;23.366;2023-02-01T05:03:01;94332.50;;;0.87;100.00
9721;BME280;4899;42.644;23.366;2023-02-01T05:05:28;94340.47;;;1.01;100.00
9721;BME280;4899;42.644;23.366;2023-02-01T05:07:54;94321.63;;;0.87;100.00
9721;BME280;4899;42.644;23.366;2023-02-01T05:10:19;94336.84;;;0.92;100.00
9721;BME280;4899;42.644;23.366;2023-02-01T05:12:45;94354.03;;;0.90;100.00
9721;BME280;4899;42.644;23.366;2023-02-01T05:15:30;94343.19;;;0.95;100.00
9721;BME280;4899;42.644;23.366;2023-02-01T05:17:56;94344.53;;;1.02;100.00
9721;BME280;4899;42.644;23.366;2023-02-01T05:20:21;94340.50;;;1.06;100.00
9721;BME280;4899;42.644;23.366;2023-02-01T05:22:47;94339.47;;;1.02;100.00
9721;BME280;4899;42.644;23.366;2023-02-01T05:25:13;94350.38;;;1.08;100.00
9721;BME280;4899;42.644;23.366;2023-02-01T05:27:39;94333.66;;;1.07;100.00
9721;BME280;4899;42.644;23.366;2023-02-01T05:30:05;94338.22;;;1.10;100.00
9721;BME280;4899;42.644;23.366;2023-02-01T05:32:31;94328.28;;;0.98;100.00
9721;BME280;4899;42.644;23.366;2023-02-01T05:34:57;94338.47;;;1.08;100.00
9721;BME280;4899;42.644;23.366;2023-02-01T05:37:23;94350.44;;;1.23;100.00
9721;BME280;4899;42.644;23.366;2023-02-01T05:39:48;94348.94;;;1.22;100.00
9721;BME280;4899;42.644;23.366;2023-02-01T05:42:14;94337.06;;;1.28;100.00
9721;BME280;4899;42.644;23.366;2023-02-01T05:44:39;94341.88;;;1.24;100.00
9721;BME280;4899;42.644;23.366;2023-02-01T05:47:29;94362.94;;;1.35;100.00
9721;BME280;4899;42.644;23.366;2023-02-01T05:50:19;94358.38;;;1.32;100.00
9721;BME280;4899;42.644;23.366;2023-02-01T05:53:10;94337.38;;;1.36;100.00
9721;BME280;4899;42.644;23.366;2023-02-01T05:56:01;94347.53;;;1.41;100.00
9721;BME280;4899;42.644;23.366;2023-02-01T05:58:52;94330.78;;;1.40;100.00
9721;BME280;4899;42.644;23.366;2023-02-01T06:01:42;94335.94;;;1.56;100.00
9721;BME280;4899;42.644;23.366;2023-02-01T06:04:34;94343.56;;;1.66;100.00
9721;BME280;4899;42.644;23.366;2023-02-01T06:07:25;94352.94;;;1.65;100.00
9721;BME280;4899;42.644;23.366;2023-02-01T06:10:19;94376.53;;;1.66;100.00
9721;BME280;4899;42.644;23.366;2023-02-01T06:13:10;94397.31;;;1.63;100.00
9721;BME280;4899;42.644;23.366;2023-02-01T06:16:02;94357.28;;;1.70;100.00
9721;BME280;4899;42.644;23.366;2023-02-01T06:18:52;94356.75;;;1.68;100.00
9721;BME280;4899;42.644;23.366;2023-02-01T06:21:44;94358.09;;;1.75;100.00
9721;BME280;4899;42.644;23.366;2023-02-01T18:26:49;94288.44;;;5.11;55.51
9721;BME280;4899;42.644;23.366;2023-02-01T18:29:16;94281.22;;;5.18;55.86
9721;BME280;4899;42.644;23.366;2023-02-01T18:31:46;94277.63;;;5.24;55.36
9721;BME280;4899;42.644;23.366;2023-02-01T18:34:13;94270.19;;;5.28;55.45
9721;BME280;4899;42.644;23.366;2023-02-01T18:36:45;94285.47;;;5.28;55.40
9721;BME280;4899;42.644;23.366;2023-02-01T18:39:10;94279.34;;;5.29;55.10
9721;BME280;4899;42.644;23.366;2023-02-01T18:41:36;94277.13;;;5.22;55.60
9721;BME280;4899;42.644;23.366;2023-02-01T18:44:02;94274.41;;;5.13;55.37
9721;BME280;4899;42.644;23.366;2023-02-01T18:46:28;94258.34;;;5.13;54.63
9721;BME280;4899;42.644;23.366;2023-02-01T18:48:54;94278.38;;;5.24;54.97
9721;BME280;4899;42.644;23.366;2023-02-01T18:51:19;94274.69;;;5.36;54.77
9721;BME280;4899;42.644;23.366;2023-02-01T18:53:46;94271.28;;;4.92;57.56
9721;BME280;4899;42.644;23.366;2023-02-01T18:56:13;94262.13;;;4.62;59.33
9721;BME280;4899;42.644;23.366;2023-02-01T18:58:39;94247.75;;;4.48;60.76
9721;BME280;4899;42.644;23.366;2023-02-01T19:01:07;94256.09;;;4.53;59.65
9721;BME280;4899;42.644;23.366;2023-02-01T19:03:34;94248.13;;;4.31;63.76
9721;BME280;4899;42.644;23.366;2023-02-01T19:06:00;94247.28;;;4.07;66.89
9721;BME280;4899;42.644;23.366;2023-02-01T19:08:25;94246.06;;;3.99;68.75
9721;BME280;4899;42.644;23.366;2023-02-01T19:10:52;94248.19;;;3.82;73.16
9721;BME280;4899;42.644;23.366;2023-02-01T19:13:18;94243.09;;;3.82;67.96
9721;BME280;4899;42.644;23.366;2023-02-01T19:15:45;94249.66;;;4.32;65.04
9721;BME280;4899;42.644;23.366;2023-02-01T19:18:11;94245.59;;;4.31;66.51
9721;BME280;4899;42.644;23.366;2023-02-01T19:20:37;94250.31;;;4.09;70.19
9721;BME280;4899;42.644;23.366;2023-02-01T19:23:10;94259.97;;;4.12;67.52
9721;BME280;4899;42.644;23.366;2023-02-01T19:25:36;94240.34;;;4.51;61.70
9721;BME280;4899;42.644;23.366;2023-02-01T19:28:01;94241.09;;;4.52;62.47
9721;BME280;4899;42.644;23.366;2023-02-01T19:30:27;94252.59;;;4.44;65.70
9721;BME280;4899;42.644;23.366;2023-02-01T19:32:52;94239.56;;;4.22;67.88
9721;BME280;4899;42.644;23.366;2023-02-01T19:35:19;94263.00;;;4.14;69.39
9721;BME280;4899;42.644;23.366;2023-02-01T19:37:47;94257.34;;;3.83;74.99
9721;BME280;4899;42.644;23.366;2023-02-01T19:40:18;94240.88;;;3.75;76.83
9721;BME280;4899;42.644;23.366;2023-02-01T19:42:45;94248.13;;;3.48;81.63
9721;BME280;4899;42.644;23.366;2023-02-01T19:45:11;94254.25;;;3.36;83.19
9721;BME280;4899;42.644;23.366;2023-02-01T19:47:37;94234.47;;;3.18;87.94
9721;BME280;4899;42.644;23.366;2023-02-01T19:50:03;94240.06;;;3.25;88.20
9721;BME280;4899;42.644;23.366;2023-02-01T19:52:34;94254.81;;;3.28;88.34
9721;BME280;4899;42.644;23.366;2023-02-01T19:55:00;94243.91;;;3.13;92.36
9721;BME280;4899;42.644;23.366;2023-02-01T19:57:26;94243.13;;;3.17;92.36
9721;BME280;4899;42.644;23.366;2023-02-01T19:59:52;94228.19;;;3.05;93.63
9721;BME280;4899;42.644;23.366;2023-02-01T20:02:18;94244.66;;;3.13;90.61
9721;BME280;4899;42.644;23.366;2023-02-01T20:04:44;94264.50;;;3.11;94.07
9721;BME280;4899;42.644;23.366;2023-02-01T20:07:10;94252.28;;;3.23;91.45
9721;BME280;4899;42.644;23.366;2023-02-01T20:09:37;94237.06;;;3.08;95.32
9721;BME280;4899;42.644;23.366;2023-02-01T20:12:03;94242.63;;;3.15;95.69
9721;BME280;4899;42.644;23.366;2023-02-01T20:14:29;94250.78;;;3.12;93.37
9721;BME280;4899;42.644;23.366;2023-02-01T20:16:55;94271.66;;;2.99;95.28
9721;BME280;4899;42.644;23.366;2023-02-01T20:19:21;94256.91;;;2.91;95.34
9721;BME280;4899;42.644;23.366;2023-02-01T20:21:46;94263.53;;;2.87;96.57
9721;BME280;4899;42.644;23.366;2023-02-01T20:24:14;94250.59;;;2.83;94.40
9721;BME280;4899;42.644;23.366;2023-02-01T20:26:40;94261.72;;;3.07;93.69
9721;BME280;4899;42.644;23.366;2023-02-01T20:29:07;94244.38;;;3.20;91.64
9721;BME280;4899;42.644;23.366;2023-02-01T20:31:33;94255.00;;;3.37;91.03
9721;BME280;4899;42.644;23.366;2023-02-01T20:33:59;94258.53;;;3.46;89.73
9721;BME280;4899;42.644;23.366;2023-02-01T20:36:26;94274.53;;;3.52;89.00
9721;BME280;4899;42.644;23.366;2023-02-01T20:38:53;94257.25;;;3.54;87.83
9721;BME280;4899;42.644;23.366;2023-02-01T20:41:19;94268.97;;;3.50;88.20
9721;BME280;4899;42.644;23.366;2023-02-01T20:43:45;94267.44;;;3.49;87.64
9721;BME280;4899;42.644;23.366;2023-02-01T20:46:10;94249.16;;;3.36;88.11
9721;BME280;4899;42.644;23.366;2023-02-01T20:48:36;94257.28;;;3.38;89.01
9721;BME280;4899;42.644;23.366;2023-02-01T20:51:02;94260.84;;;3.37;87.94
9721;BME280;4899;42.644;23.366;2023-02-01T20:53:27;94262.16;;;3.30;88.34
9721;BME280;4899;42.644;23.366;2023-02-01T20:55:55;94247.19;;;3.23;87.18
9721;BME280;4899;42.644;23.366;2023-02-01T20:58:21;94246.16;;;3.19;87.34
9721;BME280;4899;42.644;23.366;2023-02-01T21:00:47;94253.81;;;3.24;87.85
9721;BME280;4899;42.644;23.366;2023-02-01T21:03:13;94254.06;;;3.18;88.37
9721;BME280;4899;42.644;23.366;2023-02-01T21:05:39;94246.19;;;3.14;87.86
9721;BME280;4899;42.644;23.366;2023-02-01T21:08:11;94252.78;;;3.20;87.58
9721;BME280;4899;42.644;23.366;2023-02-01T21:10:37;94239.06;;;3.16;89.25
9721;BME280;4899;42.644;23.366;2023-02-01T21:13:04;94244.16;;;3.16;87.64
9721;BME280;4899;42.644;23.366;2023-02-01T21:15:31;94238.88;;;3.02;87.41
9721;BME280;4899;42.644;23.366;2023-02-01T21:18:03;94252.84;;;3.00;88.91
9721;BME280;4899;42.644;23.366;2023-02-01T21:20:29;94260.47;;;3.05;87.78
9721;BME280;4899;42.644;23.366;2023-02-01T21:22:55;94250.31;;;3.00;88.76
9721;BME280;4899;42.644;23.366;2023-02-01T21:25:21;94259.69;;;3.04;88.59
9721;BME280;4899;42.644;23.366;2023-02-01T21:27:47;94262.25;;;3.04;88.75
9721;BME280;4899;42.644;23.366;2023-02-01T21:30:13;94267.81;;;3.06;89.09
9721;BME280;4899;42.644;23.366;2023-02-01T21:32:39;94265.56;;;3.00;90.00
9721;BME280;4899;42.644;23.366;2023-02-01T21:35:05;94278.00;;;2.91;90.52
9721;BME280;4899;42.644;23.366;2023-02-01T21:37:32;94281.81;;;2.89;90.23
9721;BME280;4899;42.644;23.366;2023-02-01T21:39:58;94273.69;;;2.92;88.90
9721;BME280;4899;42.644;23.366;2023-02-01T21:42:23;94260.25;;;2.86;88.58
9721;BME280;4899;42.644;23.366;2023-02-01T21:44:51;94280.25;;;3.08;88.25
9721;BME280;4899;42.644;23.366;2023-02-01T21:47:18;94293.97;;;3.12;88.48
9721;BME280;4899;42.644;23.366;2023-02-01T21:49:45;94291.16;;;3.14;87.97
9721;BME280;4899;42.644;23.366;2023-02-01T21:52:12;94281.00;;;3.14;87.37
9721;BME280;4899;42.644;23.366;2023-02-01T21:54:38;94272.38;;;3.15;88.19
9721;BME280;4899;42.644;23.366;2023-02-01T21:57:04;94272.59;;;3.18;88.22
9721;BME280;4899;42.644;23.366;2023-02-01T21:59:32;94279.72;;;3.16;87.32
9721;BME280;4899;42.644;23.366;2023-02-01T22:02:00;94276.19;;;3.22;86.51
9721;BME280;4899;42.644;23.366;2023-02-01T22:04:26;94273.38;;;3.19;87.46
9721;BME280;4899;42.644;23.366;2023-02-01T22:06:51;94266.28;;;3.11;89.55
9721;BME280;4899;42.644;23.366;2023-02-01T22:09:19;94276.69;;;3.14;90.11
9721;BME280;4899;42.644;23.366;2023-02-01T22:11:45;94271.59;;;3.14;89.01
9721;BME280;4899;42.644;23.366;2023-02-01T22:14:11;94259.41;;;3.16;88.56
9721;BME280;4899;42.644;23.366;2023-02-01T22:16:37;94251.75;;;3.21;89.04
9721;BME280;4899;42.644;23.366;2023-02-01T22:19:03;94269.59;;;3.11;92.57
9721;BME280;4899;42.644;23.366;2023-02-01T22:21:28;94240.72;;;2.56;94.50
9721;BME280;4899;42.644;23.366;2023-02-01T22:23:55;94265.63;;;2.49;98.08
9721;BME280;4899;42.644;23.366;2023-02-01T22:26:23;94264.59;;;2.45;96.88
9721;BME280;4899;42.644;23.366;2023-02-01T22:28:49;94276.00;;;2.47;97.81
9721;BME280;4899;42.644;23.366;2023-02-01T22:31:15;94268.66;;;2.51;98.07
9721;BME280;4899;42.644;23.366;2023-02-01T22:33:41;94260.78;;;2.53;97.40
9721;BME280;4899;42.644;23.366;2023-02-01T22:36:07;94274.25;;;2.53;99.27
9721;BME280;4899;42.644;23.366;2023-02-01T22:38:34;94276.53;;;2.50;99.58
9721;BME280;4899;42.644;23.366;2023-02-01T22:41:02;94278.31;;;2.54;99.59
9721;BME280;4899;42.644;23.366;2023-02-01T22:43:28;94283.63;;;2.68;100.00
9721;BME280;4899;42.644;23.366;2023-02-01T22:45:58;94283.09;;;2.81;100.00
9721;BME280;4899;42.644;23.366;2023-02-01T22:48:26;94274.97;;;2.89;100.00
9721;BME280;4899;42.644;23.366;2023-02-01T22:50:57;94270.13;;;3.03;100.00
9721;BME280;4899;42.644;23.366;2023-02-01T22:53:24;94273.38;;;3.19;99.33
9721;BME280;4899;42.644;23.366;2023-02-01T22:55:50;94278.91;;;3.36;98.30
9721;BME280;4899;42.644;23.366;2023-02-01T22:58:16;94283.69;;;3.53;94.70
9721;BME280;4899;42.644;23.366;2023-02-01T23:00:42;94279.59;;;3.57;93.70
9721;BME280;4899;42.644;23.366;2023-02-01T23:03:08;94274.97;;;3.64;92.40
9721;BME280;4899;42.644;23.366;2023-02-01T23:05:33;94274.66;;;3.81;85.40
9721;BME280;4899;42.644;23.366;2023-02-01T23:07:59;94263.19;;;3.83;83.10
9721;BME280;4899;42.644;23.366;2023-02-01T23:10:25;94277.84;;;3.96;82.12
9721;BME280;4899;42.644;23.366;2023-02-01T23:12:50;94285.50;;;3.96;80.62
9721;BME280;4899;42.644;23.366;2023-02-01T23:15:16;94277.63;;;3.93;80.03
9721;BME280;4899;42.644;23.366;2023-02-01T23:17:43;94294.53;;;3.74;84.87
9721;BME280;4899;42.644;23.366;2023-02-01T23:20:16;94286.91;;;3.68;86.17
9721;BME280;4899;42.644;23.366;2023-02-01T23:22:43;94286.91;;;3.74;83.68
9721;BME280;4899;42.644;23.366;2023-02-01T23:25:10;94262.72;;;3.76;82.80
9721;BME280;4899;42.644;23.366;2023-02-01T23:27:36;94280.53;;;3.71;79.36
9721;BME280;4899;42.644;23.366;2023-02-01T23:30:03;94271.41;;;3.65;79.16
9721;BME280;4899;42.644;23.366;2023-02-01T23:32:30;94270.84;;;3.78;81.30
9721;BME280;4899;42.644;23.366;2023-02-01T23:34:57;94285.03;;;3.89;78.71
9721;BME280;4899;42.644;23.366;2023-02-01T23:37:23;94288.34;;;3.90;78.64
9721;BME280;4899;42.644;23.366;2023-02-01T23:39:49;94284.50;;;3.92;77.91
9721;BME280;4899;42.644;23.366;2023-02-01T23:42:16;94285.25;;;3.93;77.22
9721;BME280;4899;42.644;23.366;2023-02-01T23:44:41;94276.59;;;3.94;77.32
9721;BME280;4899;42.644;23.366;2023-02-01T23:47:08;94276.34;;;3.95;77.39
9721;BME280;4899;42.644;23.366;2023-02-01T23:49:34;94285.00;;;3.94;77.91
9721;BME280;4899;42.644;23.366;2023-02-01T23:51:59;94288.03;;;3.96;77.26
9721;BME280;4899;42.644;23.366;2023-02-01T23:54:25;94289.28;;;4.04;76.30
9721;BME280;4899;42.644;23.366;2023-02-01T23:56:50;94289.53;;;4.08;74.44
9721;BME280;4899;42.644;23.366;2023-02-01T23:59:20;94315.94;;;4.17;68.89
